Terminal Aerodrome Forecast
Issued by NWS

Home | Current Version | Previous Version | Text Only | Print | Product List | Glossary On
Versions: 1 2 3 4 5 6 7 8 9 10 11 12 13 14
000
FTAK31 PAJN 302300
TAFAJN
TAF
PAJN 302330Z 3100/3124 09008KT P6SM VCSH SCT040 BKN080
     FM310300 09005KT P6SM VCSH FEW025 BKN050 BKN100
     FM310900 00000KT P6SM BCFG SCT002 BKN100
     FM311800 25005KT P6SM SCT100=

USA.gov is the U.S. government's official web portal to all federal, state and local government web resources and services.